sensor_id;sensor_type;location;lat;lon;timestamp;pressure;altitude;pressure_sealevel;temperature
48854;BMP280;34673;52.808;17.856;2024-02-21T00:01:41;100835.00;;;5.88
48854;BMP280;34673;52.808;17.856;2024-02-21T00:04:09;100831.56;;;5.89
48854;BMP280;34673;52.808;17.856;2024-02-21T00:06:37;100827.34;;;5.89
48854;BMP280;34673;52.808;17.856;2024-02-21T00:09:05;100834.19;;;5.90
48854;BMP280;34673;52.808;17.856;2024-02-21T00:11:33;100828.19;;;5.90
48854;BMP280;34673;52.808;17.856;2024-02-21T00:14:01;100822.19;;;5.89
48854;BMP280;34673;52.808;17.856;2024-02-21T00:16:29;100821.31;;;5.89
48854;BMP280;34673;52.808;17.856;2024-02-21T00:18:57;100819.59;;;5.88
48854;BMP280;34673;52.808;17.856;2024-02-21T00:21:24;100820.44;;;5.88
48854;BMP280;34673;52.808;17.856;2024-02-21T00:23:52;100817.91;;;5.90
48854;BMP280;34673;52.808;17.856;2024-02-21T00:26:19;100809.38;;;5.91
48854;BMP280;34673;52.808;17.856;2024-02-21T00:28:46;100810.25;;;5.93
48854;BMP280;34673;52.808;17.856;2024-02-21T00:31:14;100808.56;;;5.92
48854;BMP280;34673;52.808;17.856;2024-02-21T00:33:41;100807.69;;;5.93
48854;BMP280;34673;52.808;17.856;2024-02-21T00:36:09;100799.09;;;5.91
48854;BMP280;34673;52.808;17.856;2024-02-21T00:38:36;100800.84;;;5.92
48854;BMP280;34673;52.808;17.856;2024-02-21T00:41:04;100800.84;;;5.92
48854;BMP280;34673;52.808;17.856;2024-02-21T00:43:31;100799.03;;;5.88
48854;BMP280;34673;52.808;17.856;2024-02-21T00:45:59;100802.50;;;5.90
48854;BMP280;34673;52.808;17.856;2024-02-21T00:48:26;100790.50;;;5.89
48854;BMP280;34673;52.808;17.856;2024-02-21T00:50:54;100787.88;;;5.84
48854;BMP280;34673;52.808;17.856;2024-02-21T00:53:21;100786.16;;;5.86
48854;BMP280;34673;52.808;17.856;2024-02-21T00:55:49;100793.06;;;5.87
48854;BMP280;34673;52.808;17.856;2024-02-21T00:58:16;100776.75;;;5.84
48854;BMP280;34673;52.808;17.856;2024-02-21T01:00:44;100784.53;;;5.90
48854;BMP280;34673;52.808;17.856;2024-02-21T01:03:11;100783.69;;;5.89
48854;BMP280;34673;52.808;17.856;2024-02-21T01:05:39;100782.78;;;5.89
48854;BMP280;34673;52.808;17.856;2024-02-21T01:08:07;100774.28;;;5.90
48854;BMP280;34673;52.808;17.856;2024-02-21T01:10:34;100773.41;;;5.91
48854;BMP280;34673;52.808;17.856;2024-02-21T01:13:02;100779.47;;;5.93
48854;BMP280;34673;52.808;17.856;2024-02-21T01:15:29;100776.03;;;5.92
48854;BMP280;34673;52.808;17.856;2024-02-21T01:17:57;100767.47;;;5.92
48854;BMP280;34673;52.808;17.856;2024-02-21T01:20:24;100759.75;;;5.92
48854;BMP280;34673;52.808;17.856;2024-02-21T01:22:52;100761.47;;;5.93
48854;BMP280;34673;52.808;17.856;2024-02-21T01:25:19;100758.09;;;5.94
48854;BMP280;34673;52.808;17.856;2024-02-21T01:27:47;100758.09;;;5.94
48854;BMP280;34673;52.808;17.856;2024-02-21T01:30:15;100756.34;;;5.93
48854;BMP280;34673;52.808;17.856;2024-02-21T01:32:42;100753.84;;;5.94
48854;BMP280;34673;52.808;17.856;2024-02-21T01:35:10;100749.56;;;5.95
48854;BMP280;34673;52.808;17.856;2024-02-21T01:37:37;100744.34;;;5.92
48854;BMP280;34673;52.808;17.856;2024-02-21T01:40:05;100751.28;;;5.96
48854;BMP280;34673;52.808;17.856;2024-02-21T01:42:33;100741.91;;;5.98
48854;BMP280;34673;52.808;17.856;2024-02-21T01:45:05;100742.75;;;5.97
48854;BMP280;34673;52.808;17.856;2024-02-21T01:47:33;100729.03;;;5.95
48854;BMP280;34673;52.808;17.856;2024-02-21T01:50:01;100733.31;;;5.96
48854;BMP280;34673;52.808;17.856;2024-02-21T01:52:30;100726.47;;;5.96
48854;BMP280;34673;52.808;17.856;2024-02-21T01:54:58;100727.28;;;5.94
48854;BMP280;34673;52.808;17.856;2024-02-21T01:57:26;100730.75;;;5.96
48854;BMP280;34673;52.808;17.856;2024-02-21T01:59:55;100729.03;;;5.95
48854;BMP280;34673;52.808;17.856;2024-02-21T02:02:25;100725.53;;;5.93
48854;BMP280;34673;52.808;17.856;2024-02-21T02:04:54;100720.47;;;5.96
48854;BMP280;34673;52.808;17.856;2024-02-21T02:07:22;100707.53;;;5.91
48854;BMP280;34673;52.808;17.856;2024-02-21T02:09:49;100718.81;;;5.99
48854;BMP280;34673;52.808;17.856;2024-02-21T02:12:17;100717.97;;;5.99
48854;BMP280;34673;52.808;17.856;2024-02-21T02:14:44;100714.53;;;5.98
48854;BMP280;34673;52.808;17.856;2024-02-21T02:17:11;100711.94;;;5.97
48854;BMP280;34673;52.808;17.856;2024-02-21T02:19:39;100698.22;;;5.96
48854;BMP280;34673;52.808;17.856;2024-02-21T02:22:13;100701.59;;;5.94
48854;BMP280;34673;52.808;17.856;2024-02-21T02:24:43;100706.75;;;5.94
48854;BMP280;34673;52.808;17.856;2024-02-21T02:27:11;100699.81;;;5.90
48854;BMP280;34673;52.808;17.856;2024-02-21T02:29:38;100691.09;;;5.80
48854;BMP280;34673;52.808;17.856;2024-02-21T02:32:06;100697.16;;;5.85
48854;BMP280;34673;52.808;17.856;2024-02-21T02:34:33;100696.25;;;5.82
48854;BMP280;34673;52.808;17.856;2024-02-21T02:37:00;100702.25;;;5.82
48854;BMP280;34673;52.808;17.856;2024-02-21T02:39:28;100691.06;;;5.78
48854;BMP280;34673;52.808;17.856;2024-02-21T02:41:55;100696.16;;;5.75
48854;BMP280;34673;52.808;17.856;2024-02-21T02:44:23;100696.09;;;5.72
48854;BMP280;34673;52.808;17.856;2024-02-21T02:46:51;100684.94;;;5.70
48854;BMP280;34673;52.808;17.856;2024-02-21T02:49:18;100678.81;;;5.62
48854;BMP280;34673;52.808;17.856;2024-02-21T02:51:46;100677.06;;;5.61
48854;BMP280;34673;52.808;17.856;2024-02-21T02:54:13;100685.66;;;5.63
48854;BMP280;34673;52.808;17.856;2024-02-21T02:56:40;100672.75;;;5.57
48854;BMP280;34673;52.808;17.856;2024-02-21T02:59:08;100678.78;;;5.59
48854;BMP280;34673;52.808;17.856;2024-02-21T03:01:36;100681.28;;;5.58
48854;BMP280;34673;52.808;17.856;2024-02-21T03:04:03;100676.97;;;5.55
48854;BMP280;34673;52.808;17.856;2024-02-21T03:06:31;100677.78;;;5.52
48854;BMP280;34673;52.808;17.856;2024-02-21T03:08:58;100679.50;;;5.52
48854;BMP280;34673;52.808;17.856;2024-02-21T03:11:27;100678.59;;;5.50
48854;BMP280;34673;52.808;17.856;2024-02-21T03:13:57;100678.59;;;5.50
48854;BMP280;34673;52.808;17.856;2024-02-21T03:16:24;100664.81;;;5.45
48854;BMP280;34673;52.808;17.856;2024-02-21T03:18:52;100670.00;;;5.48
48854;BMP280;34673;52.808;17.856;2024-02-21T03:21:20;100666.47;;;5.43
48854;BMP280;34673;52.808;17.856;2024-02-21T03:23:47;100668.28;;;5.47
48854;BMP280;34673;52.808;17.856;2024-02-21T03:26:15;100663.94;;;5.44
48854;BMP280;34673;52.808;17.856;2024-02-21T03:28:44;100663.94;;;5.44
48854;BMP280;34673;52.808;17.856;2024-02-21T03:31:15;100664.81;;;5.45
48854;BMP280;34673;52.808;17.856;2024-02-21T03:33:43;100660.53;;;5.45
48854;BMP280;34673;52.808;17.856;2024-02-21T03:36:14;100663.16;;;5.47
48854;BMP280;34673;52.808;17.856;2024-02-21T03:38:42;100652.88;;;5.47
48854;BMP280;34673;52.808;17.856;2024-02-21T03:41:10;100649.47;;;5.48
48854;BMP280;34673;52.808;17.856;2024-02-21T03:43:38;100651.16;;;5.46
48854;BMP280;34673;52.808;17.856;2024-02-21T03:46:06;100644.34;;;5.48
48854;BMP280;34673;52.808;17.856;2024-02-21T03:48:34;100647.75;;;5.47
48854;BMP280;34673;52.808;17.856;2024-02-21T03:51:03;100640.94;;;5.49
48854;BMP280;34673;52.808;17.856;2024-02-21T03:53:30;100634.97;;;5.48
48854;BMP280;34673;52.808;17.856;2024-02-21T03:56:01;100638.41;;;5.50
48854;BMP280;34673;52.808;17.856;2024-02-21T03:58:31;100635.00;;;5.51
48854;BMP280;34673;52.808;17.856;2024-02-21T04:01:02;100639.25;;;5.51
48854;BMP280;34673;52.808;17.856;2024-02-21T04:03:30;100625.56;;;5.50
48854;BMP280;34673;52.808;17.856;2024-02-21T04:05:58;100626.44;;;5.51
48854;BMP280;34673;52.808;17.856;2024-02-21T04:08:25;100617.81;;;5.47
48854;BMP280;34673;52.808;17.856;2024-02-21T04:10:53;100619.63;;;5.51
48854;BMP280;34673;52.808;17.856;2024-02-21T04:13:21;100618.81;;;5.54
48854;BMP280;34673;52.808;17.856;2024-02-21T04:15:50;100611.03;;;5.51
48854;BMP280;34673;52.808;17.856;2024-02-21T04:18:17;100620.53;;;5.55
48854;BMP280;34673;52.808;17.856;2024-02-21T04:20:44;100612.72;;;5.49
48854;BMP280;34673;52.808;17.856;2024-02-21T04:23:12;100608.47;;;5.51
48854;BMP280;34673;52.808;17.856;2024-02-21T04:25:39;100609.34;;;5.51
48854;BMP280;34673;52.808;17.856;2024-02-21T04:28:07;100610.22;;;5.52
48854;BMP280;34673;52.808;17.856;2024-02-21T04:30:34;100615.34;;;5.52
48854;BMP280;34673;52.808;17.856;2024-02-21T04:33:02;100605.09;;;5.52
48854;BMP280;34673;52.808;17.856;2024-02-21T04:35:29;100599.09;;;5.53
48854;BMP280;34673;52.808;17.856;2024-02-21T04:37:57;100603.41;;;5.54
48854;BMP280;34673;52.808;17.856;2024-02-21T04:40:24;100592.28;;;5.55
48854;BMP280;34673;52.808;17.856;2024-02-21T04:42:52;100595.72;;;5.54
48854;BMP280;34673;52.808;17.856;2024-02-21T04:45:19;100588.78;;;5.48
48854;BMP280;34673;52.808;17.856;2024-02-21T04:47:46;100592.25;;;5.53
48854;BMP280;34673;52.808;17.856;2024-02-21T04:50:14;100584.59;;;5.55
48854;BMP280;34673;52.808;17.856;2024-02-21T04:52:43;100582.88;;;5.54
48854;BMP280;34673;52.808;17.856;2024-02-21T04:55:10;100582.94;;;5.57
48854;BMP280;34673;52.808;17.856;2024-02-21T04:57:37;100582.94;;;5.57
48854;BMP280;34673;52.808;17.856;2024-02-21T05:00:06;100581.22;;;5.58
48854;BMP280;34673;52.808;17.856;2024-02-21T05:02:33;100582.94;;;5.57
48854;BMP280;34673;52.808;17.856;2024-02-21T05:05:01;100575.28;;;5.60
48854;BMP280;34673;52.808;17.856;2024-02-21T05:07:29;100561.56;;;5.58
48854;BMP280;34673;52.808;17.856;2024-02-21T05:09:57;100575.28;;;5.60
48854;BMP280;34673;52.808;17.856;2024-02-21T05:12:24;100570.13;;;5.60
48854;BMP280;34673;52.808;17.856;2024-02-21T05:14:51;100571.84;;;5.60
48854;BMP280;34673;52.808;17.856;2024-02-21T05:17:19;100568.44;;;5.59
48854;BMP280;34673;52.808;17.856;2024-02-21T05:19:47;100561.56;;;5.58
48854;BMP280;34673;52.808;17.856;2024-02-21T05:22:15;100558.16;;;5.59
48854;BMP280;34673;52.808;17.856;2024-02-21T05:24:42;100553.03;;;5.59
48854;BMP280;34673;52.808;17.856;2024-02-21T05:27:10;100545.25;;;5.56
48854;BMP280;34673;52.808;17.856;2024-02-21T05:29:37;100544.44;;;5.59
48854;BMP280;34673;52.808;17.856;2024-02-21T05:32:05;100538.41;;;5.55
48854;BMP280;34673;52.808;17.856;2024-02-21T05:34:33;100533.28;;;5.55
48854;BMP280;34673;52.808;17.856;2024-02-21T05:37:00;100541.06;;;5.61
48854;BMP280;34673;52.808;17.856;2024-02-21T05:39:28;100541.06;;;5.61
48854;BMP280;34673;52.808;17.856;2024-02-21T05:41:56;100523.00;;;5.55
48854;BMP280;34673;52.808;17.856;2024-02-21T05:44:24;100538.53;;;5.64
48854;BMP280;34673;52.808;17.856;2024-02-21T05:46:51;100534.25;;;5.63
48854;BMP280;34673;52.808;17.856;2024-02-21T05:49:18;100536.81;;;5.63
48854;BMP280;34673;52.808;17.856;2024-02-21T05:51:46;100534.28;;;5.65
48854;BMP280;34673;52.808;17.856;2024-02-21T05:54:14;100537.72;;;5.67
48854;BMP280;34673;52.808;17.856;2024-02-21T05:56:45;100540.25;;;5.62
48854;BMP280;34673;52.808;17.856;2024-02-21T05:59:14;100526.56;;;5.63
48854;BMP280;34673;52.808;17.856;2024-02-21T06:01:41;100531.72;;;5.66
48854;BMP280;34673;52.808;17.856;2024-02-21T06:04:09;100519.72;;;5.62
48854;BMP280;34673;52.808;17.856;2024-02-21T06:06:36;100527.44;;;5.67
48854;BMP280;34673;52.808;17.856;2024-02-21T06:09:04;100520.56;;;5.64
48854;BMP280;34673;52.808;17.856;2024-02-21T06:11:32;100524.94;;;5.68
48854;BMP280;34673;52.808;17.856;2024-02-21T06:14:00;100526.63;;;5.69
48854;BMP280;34673;52.808;17.856;2024-02-21T06:16:27;100518.13;;;5.70
48854;BMP280;34673;52.808;17.856;2024-02-21T06:18:55;100518.97;;;5.71
48854;BMP280;34673;52.808;17.856;2024-02-21T06:21:22;100465.53;;;5.42
48854;BMP280;34673;52.808;17.856;2024-02-21T06:23:50;100512.97;;;5.70
48854;BMP280;34673;52.808;17.856;2024-02-21T06:26:17;100515.56;;;5.70
48854;BMP280;34673;52.808;17.856;2024-02-21T06:28:45;100507.91;;;5.73
48854;BMP280;34673;52.808;17.856;2024-02-21T06:31:13;100504.47;;;5.74
48854;BMP280;34673;52.808;17.856;2024-02-21T06:33:41;100497.63;;;5.73
48854;BMP280;34673;52.808;17.856;2024-02-21T06:36:09;100495.88;;;5.72
48854;BMP280;34673;52.808;17.856;2024-02-21T06:38:36;100494.22;;;5.74
48854;BMP280;34673;52.808;17.856;2024-02-21T06:41:03;100499.34;;;5.74
48854;BMP280;34673;52.808;17.856;2024-02-21T06:43:31;100501.91;;;5.73
48854;BMP280;34673;52.808;17.856;2024-02-21T06:45:59;100490.72;;;5.69
48854;BMP280;34673;52.808;17.856;2024-02-21T06:48:26;100495.06;;;5.75
48854;BMP280;34673;52.808;17.856;2024-02-21T06:50:54;100513.06;;;5.76
48854;BMP280;34673;52.808;17.856;2024-02-21T06:53:21;100504.50;;;5.76
48854;BMP280;34673;52.808;17.856;2024-02-21T06:55:49;100487.31;;;5.70
48854;BMP280;34673;52.808;17.856;2024-02-21T06:58:16;100491.69;;;5.76
48854;BMP280;34673;52.808;17.856;2024-02-21T07:00:44;100487.41;;;5.76
48854;BMP280;34673;52.808;17.856;2024-02-21T07:03:12;100485.69;;;5.75
48854;BMP280;34673;52.808;17.856;2024-02-21T07:05:40;100490.81;;;5.75
48854;BMP280;34673;52.808;17.856;2024-02-21T07:08:07;100486.53;;;5.77
48854;BMP280;34673;52.808;17.856;2024-02-21T07:10:35;100481.44;;;5.81
48854;BMP280;34673;52.808;17.856;2024-02-21T07:13:02;100481.50;;;5.84
48854;BMP280;34673;52.808;17.856;2024-02-21T07:15:30;100472.97;;;5.86
48854;BMP280;34673;52.808;17.856;2024-02-21T07:17:58;100477.28;;;5.89
48854;BMP280;34673;52.808;17.856;2024-02-21T07:20:26;100468.75;;;5.90
48854;BMP280;34673;52.808;17.856;2024-02-21T07:22:54;100461.84;;;5.86
48854;BMP280;34673;52.808;17.856;2024-02-21T07:25:21;100466.22;;;5.93
48854;BMP280;34673;52.808;17.856;2024-02-21T07:27:49;100452.47;;;5.88
48854;BMP280;34673;52.808;17.856;2024-02-21T07:30:16;100462.81;;;5.94
48854;BMP280;34673;52.808;17.856;2024-02-21T07:32:44;100460.22;;;5.92
48854;BMP280;34673;52.808;17.856;2024-02-21T07:35:11;100458.56;;;5.96
48854;BMP280;34673;52.808;17.856;2024-02-21T07:37:39;100458.56;;;5.96
48854;BMP280;34673;52.808;17.856;2024-02-21T07:40:12;100462.84;;;5.97
48854;BMP280;34673;52.808;17.856;2024-02-21T07:42:41;100454.34;;;5.99
48854;BMP280;34673;52.808;17.856;2024-02-21T07:45:08;100459.47;;;5.99
48854;BMP280;34673;52.808;17.856;2024-02-21T07:47:37;100461.19;;;5.99
48854;BMP280;34673;52.808;17.856;2024-02-21T07:50:05;100452.59;;;5.97
48854;BMP280;34673;52.808;17.856;2024-02-21T07:52:33;100457.78;;;6.00
48854;BMP280;34673;52.808;17.856;2024-02-21T07:55:00;100448.34;;;5.97
48854;BMP280;34673;52.808;17.856;2024-02-21T07:57:27;100442.38;;;6.00
48854;BMP280;34673;52.808;17.856;2024-02-21T07:59:55;100451.84;;;6.04
48854;BMP280;34673;52.808;17.856;2024-02-21T08:02:22;100446.69;;;6.04
48854;BMP280;34673;52.808;17.856;2024-02-21T08:04:50;100442.41;;;6.05
48854;BMP280;34673;52.808;17.856;2024-02-21T08:07:18;100439.88;;;6.06
48854;BMP280;34673;52.808;17.856;2024-02-21T08:09:45;100434.75;;;6.06
48854;BMP280;34673;52.808;17.856;2024-02-21T08:12:13;100435.50;;;5.99
48854;BMP280;34673;52.808;17.856;2024-02-21T08:14:40;100439.84;;;6.03
48854;BMP280;34673;52.808;17.856;2024-02-21T08:17:08;100434.72;;;6.05
48854;BMP280;34673;52.808;17.856;2024-02-21T08:19:36;100425.28;;;6.05
48854;BMP280;34673;52.808;17.856;2024-02-21T08:22:04;100421.03;;;6.07
48854;BMP280;34673;52.808;17.856;2024-02-21T08:24:32;100420.19;;;6.07
48854;BMP280;34673;52.808;17.856;2024-02-21T08:26:59;100415.03;;;6.04
48854;BMP280;34673;52.808;17.856;2024-02-21T08:29:26;100415.88;;;6.04
48854;BMP280;34673;52.808;17.856;2024-02-21T08:31:54;100414.19;;;6.06
48854;BMP280;34673;52.808;17.856;2024-02-21T08:34:21;100410.78;;;6.07
48854;BMP280;34673;52.808;17.856;2024-02-21T08:36:49;100421.06;;;6.09
48854;BMP280;34673;52.808;17.856;2024-02-21T08:39:17;100414.16;;;6.03
48854;BMP280;34673;52.808;17.856;2024-02-21T08:41:44;100417.69;;;6.11
48854;BMP280;34673;52.808;17.856;2024-02-21T08:44:23;100423.66;;;6.09
48854;BMP280;34673;52.808;17.856;2024-02-21T08:46:55;100406.50;;;6.06
48854;BMP280;34673;52.808;17.856;2024-02-21T08:49:23;100415.97;;;6.13
48854;BMP280;34673;52.808;17.856;2024-02-21T08:51:52;100419.44;;;6.15
48854;BMP280;34673;52.808;17.856;2024-02-21T08:54:20;100414.31;;;6.18
48854;BMP280;34673;52.808;17.856;2024-02-21T08:56:47;100415.19;;;6.19
48854;BMP280;34673;52.808;17.856;2024-02-21T08:59:15;100413.50;;;6.21
48854;BMP280;34673;52.808;17.856;2024-02-21T09:01:43;100401.50;;;6.21
48854;BMP280;34673;52.808;17.856;2024-02-21T09:04:11;100393.78;;;6.21
48854;BMP280;34673;52.808;17.856;2024-02-21T09:06:39;100400.75;;;6.32
48854;BMP280;34673;52.808;17.856;2024-02-21T09:09:09;100402.53;;;6.36
48854;BMP280;34673;52.808;17.856;2024-02-21T09:11:37;100403.38;;;6.36
48854;BMP280;34673;52.808;17.856;2024-02-21T09:14:05;100396.56;;;6.38
48854;BMP280;34673;52.808;17.856;2024-02-21T09:16:32;100398.28;;;6.42
48854;BMP280;34673;52.808;17.856;2024-02-21T09:19:00;100389.78;;;6.48
48854;BMP280;34673;52.808;17.856;2024-02-21T09:21:32;100383.00;;;6.55
48854;BMP280;34673;52.808;17.856;2024-02-21T09:24:00;100380.38;;;6.50
48854;BMP280;34673;52.808;17.856;2024-02-21T09:26:27;100390.72;;;6.56
48854;BMP280;34673;52.808;17.856;2024-02-21T09:28:55;100398.41;;;6.55
48854;BMP280;34673;52.808;17.856;2024-02-21T09:31:23;100391.53;;;6.54
48854;BMP280;34673;52.808;17.856;2024-02-21T09:33:50;100388.13;;;6.52
48854;BMP280;34673;52.808;17.856;2024-02-21T09:36:18;100375.22;;;6.47
48854;BMP280;34673;52.808;17.856;2024-02-21T09:38:45;100394.13;;;6.55
48854;BMP280;34673;52.808;17.856;2024-02-21T09:41:17;100392.44;;;6.57
48854;BMP280;34673;52.808;17.856;2024-02-21T09:43:52;100395.03;;;6.57
48854;BMP280;34673;52.808;17.856;2024-02-21T09:49:32;100392.44;;;6.54
48854;BMP280;34673;52.808;17.856;2024-02-21T09:52:01;100380.41;;;6.53
48854;BMP280;34673;52.808;17.856;2024-02-21T09:54:35;100368.41;;;6.49
48854;BMP280;34673;52.808;17.856;2024-02-21T09:57:03;100380.41;;;6.52
48854;BMP280;34673;52.808;17.856;2024-02-21T09:59:32;100370.97;;;6.49
48854;BMP280;34673;52.808;17.856;2024-02-21T10:02:00;100371.88;;;6.54
48854;BMP280;34673;52.808;17.856;2024-02-21T10:04:29;100363.28;;;6.52
48854;BMP280;34673;52.808;17.856;2024-02-21T10:06:57;100369.31;;;6.57
48854;BMP280;34673;52.808;17.856;2024-02-21T10:09:28;100373.59;;;6.58
48854;BMP280;34673;52.808;17.856;2024-02-21T10:12:17;100366.75;;;6.57
48854;BMP280;34673;52.808;17.856;2024-02-21T10:14:46;100373.59;;;6.58
48854;BMP280;34673;52.808;17.856;2024-02-21T10:17:17;100370.16;;;6.59
48854;BMP280;34673;52.808;17.856;2024-02-21T10:19:47;100366.75;;;6.59
48854;BMP280;34673;52.808;17.856;2024-02-21T10:22:17;100363.28;;;6.55
48854;BMP280;34673;52.808;17.856;2024-02-21T10:24:45;100366.72;;;6.54
48854;BMP280;34673;52.808;17.856;2024-02-21T10:27:13;100365.00;;;6.56
48854;BMP280;34673;52.808;17.856;2024-02-21T10:29:41;100363.28;;;6.55
48854;BMP280;34673;52.808;17.856;2024-02-21T10:32:13;100358.16;;;6.55
48854;BMP280;34673;52.808;17.856;2024-02-21T10:34:42;100358.16;;;6.55
48854;BMP280;34673;52.808;17.856;2024-02-21T10:37:11;100359.84;;;6.53
48854;BMP280;34673;52.808;17.856;2024-02-21T10:39:42;100358.13;;;6.52
48854;BMP280;34673;52.808;17.856;2024-02-21T10:42:11;100353.00;;;6.52
48854;BMP280;34673;52.808;17.856;2024-02-21T10:44:40;100355.56;;;6.52
48854;BMP280;34673;52.808;17.856;2024-02-21T10:47:10;100339.25;;;6.50
48854;BMP280;34673;52.808;17.856;2024-02-21T10:49:40;100347.03;;;6.58
48854;BMP280;34673;52.808;17.856;2024-02-21T10:54:43;100331.63;;;6.58
48854;BMP280;34673;52.808;17.856;2024-02-21T10:57:13;100335.94;;;6.63
48854;BMP280;34673;52.808;17.856;2024-02-21T10:59:45;100318.75;;;6.59
48854;BMP280;34673;52.808;17.856;2024-02-21T11:02:12;100330.81;;;6.66
48854;BMP280;34673;52.808;17.856;2024-02-21T11:04:41;100322.25;;;6.68
48854;BMP280;34673;52.808;17.856;2024-02-21T11:07:09;100321.41;;;6.70
48854;BMP280;34673;52.808;17.856;2024-02-21T11:09:37;100313.72;;;6.69
48854;BMP280;34673;52.808;17.856;2024-02-21T11:12:06;100303.44;;;6.72
48854;BMP280;34673;52.808;17.856;2024-02-21T11:14:34;100301.75;;;6.74
48854;BMP280;34673;52.808;17.856;2024-02-21T11:17:18;100290.63;;;6.73
48854;BMP280;34673;52.808;17.856;2024-02-21T11:19:46;100294.88;;;6.76
48854;BMP280;34673;52.808;17.856;2024-02-21T11:22:16;100279.47;;;6.76
48854;BMP280;34673;52.808;17.856;2024-02-21T11:24:45;100281.19;;;6.74
48854;BMP280;34673;52.808;17.856;2024-02-21T11:27:14;100274.31;;;6.73
48854;BMP280;34673;52.808;17.856;2024-02-21T11:30:04;100280.38;;;6.79
48854;BMP280;34673;52.808;17.856;2024-02-21T11:32:32;100277.78;;;6.81
48854;BMP280;34673;52.808;17.856;2024-02-21T11:35:01;100270.09;;;6.84
48854;BMP280;34673;52.808;17.856;2024-02-21T11:37:33;100267.50;;;6.84
48854;BMP280;34673;52.808;17.856;2024-02-21T11:40:01;100258.09;;;6.86
48854;BMP280;34673;52.808;17.856;2024-02-21T11:42:30;100257.28;;;6.87
48854;BMP280;34673;52.808;17.856;2024-02-21T11:45:00;100252.16;;;6.90
48854;BMP280;34673;52.808;17.856;2024-02-21T11:47:31;100243.56;;;6.91
48854;BMP280;34673;52.808;17.856;2024-02-21T11:49:58;100243.56;;;6.91
48854;BMP280;34673;52.808;17.856;2024-02-21T11:52:26;100228.16;;;6.94
48854;BMP280;34673;52.808;17.856;2024-02-21T11:54:55;100226.44;;;6.96
48854;BMP280;34673;52.808;17.856;2024-02-21T11:57:32;100219.59;;;6.98
48854;BMP280;34673;52.808;17.856;2024-02-21T11:59:59;100206.72;;;6.97
48854;BMP280;34673;52.808;17.856;2024-02-21T12:02:37;100219.63;;;7.04
48854;BMP280;34673;52.808;17.856;2024-02-21T12:05:04;100226.53;;;7.08
48854;BMP280;34673;52.808;17.856;2024-02-21T12:07:32;100222.22;;;7.07
48854;BMP280;34673;52.808;17.856;2024-02-21T12:10:00;100229.09;;;7.08
48854;BMP280;34673;52.808;17.856;2024-02-21T12:12:28;100235.13;;;7.17
48854;BMP280;34673;52.808;17.856;2024-02-21T12:14:56;100227.38;;;7.15
48854;BMP280;34673;52.808;17.856;2024-02-21T12:17:26;100226.53;;;7.12
48854;BMP280;34673;52.808;17.856;2024-02-21T12:19:54;100218.78;;;7.10
48854;BMP280;34673;52.808;17.856;2024-02-21T12:22:21;100220.50;;;7.11
48854;BMP280;34673;52.808;17.856;2024-02-21T12:24:49;100214.50;;;7.10
48854;BMP280;34673;52.808;17.856;2024-02-21T12:27:16;100229.94;;;7.07
48854;BMP280;34673;52.808;17.856;2024-02-21T12:29:44;100223.91;;;7.05
48854;BMP280;34673;52.808;17.856;2024-02-21T12:32:11;100217.06;;;7.01
48854;BMP280;34673;52.808;17.856;2024-02-21T12:34:38;100210.19;;;7.05
48854;BMP280;34673;52.808;17.856;2024-02-21T12:37:23;100199.91;;;7.03
48854;BMP280;34673;52.808;17.856;2024-02-21T12:39:51;100205.06;;;7.05
48854;BMP280;34673;52.808;17.856;2024-02-21T12:42:19;100208.50;;;7.04
48854;BMP280;34673;52.808;17.856;2024-02-21T12:44:46;100204.19;;;7.04
48854;BMP280;34673;52.808;17.856;2024-02-21T12:47:14;100213.63;;;7.04
48854;BMP280;34673;52.808;17.856;2024-02-21T12:49:42;100216.19;;;7.05
48854;BMP280;34673;52.808;17.856;2024-02-21T12:52:12;100221.31;;;7.02
48854;BMP280;34673;52.808;17.856;2024-02-21T12:54:40;100217.91;;;7.03
48854;BMP280;34673;52.808;17.856;2024-02-21T12:57:09;100220.50;;;7.03
48854;BMP280;34673;52.808;17.856;2024-02-21T12:59:37;100221.34;;;7.05
48854;BMP280;34673;52.808;17.856;2024-02-21T13:02:05;100226.47;;;7.05
48854;BMP280;34673;52.808;17.856;2024-02-21T13:04:32;100221.34;;;7.05
48854;BMP280;34673;52.808;17.856;2024-02-21T13:07:01;100212.78;;;7.06
48854;BMP280;34673;52.808;17.856;2024-02-21T13:09:28;100204.22;;;7.07
48854;BMP280;34673;52.808;17.856;2024-02-21T13:11:56;100208.50;;;7.08
48854;BMP280;34673;52.808;17.856;2024-02-21T13:14:24;100198.22;;;7.08
48854;BMP280;34673;52.808;17.856;2024-02-21T13:16:52;100184.50;;;7.06
48854;BMP280;34673;52.808;17.856;2024-02-21T13:19:21;100192.22;;;7.06
48854;BMP280;34673;52.808;17.856;2024-02-21T13:21:49;100199.06;;;7.14
48854;BMP280;34673;52.808;17.856;2024-02-21T13:24:17;100194.78;;;7.13
48854;BMP280;34673;52.808;17.856;2024-02-21T13:26:45;100183.63;;;7.07
48854;BMP280;34673;52.808;17.856;2024-02-21T13:29:13;100186.22;;;7.14
48854;BMP280;34673;52.808;17.856;2024-02-21T13:31:41;100185.38;;;7.12
48854;BMP280;34673;52.808;17.856;2024-02-21T13:34:09;100185.34;;;7.13
48854;BMP280;34673;52.808;17.856;2024-02-21T13:36:38;100180.22;;;7.08
48854;BMP280;34673;52.808;17.856;2024-02-21T13:39:06;100179.34;;;7.11
48854;BMP280;34673;52.808;17.856;2024-02-21T13:41:36;100163.91;;;7.02
48854;BMP280;34673;52.808;17.856;2024-02-21T13:44:04;100186.22;;;7.10
48854;BMP280;34673;52.808;17.856;2024-02-21T13:46:32;100181.94;;;7.09
48854;BMP280;34673;52.808;17.856;2024-02-21T13:49:04;100181.94;;;7.09
48854;BMP280;34673;52.808;17.856;2024-02-21T13:51:35;100175.06;;;7.08
48854;BMP280;34673;52.808;17.856;2024-02-21T13:54:08;100178.50;;;7.10
48854;BMP280;34673;52.808;17.856;2024-02-21T13:56:37;100169.94;;;7.12
48854;BMP280;34673;52.808;17.856;2024-02-21T13:59:05;100162.22;;;7.13
48854;BMP280;34673;52.808;17.856;2024-02-21T14:01:33;100151.91;;;7.13
48854;BMP280;34673;52.808;17.856;2024-02-21T14:04:03;100153.66;;;7.16
48854;BMP280;34673;52.808;17.856;2024-02-21T14:06:31;100157.06;;;7.16
48854;BMP280;34673;52.808;17.856;2024-02-21T14:08:58;100147.63;;;7.14